createdAt,value
2018-05-02T00:00:52.538Z,74.99
2018-05-02T00:01:52.681Z,74.99
2018-05-02T00:02:52.582Z,74.80
2018-05-02T00:03:52.612Z,75.28
2018-05-02T00:04:52.610Z,75.38
2018-05-02T00:05:52.617Z,75.19
2018-05-02T00:06:52.759Z,75.19
2018-05-02T00:07:52.646Z,74.99
2018-05-02T00:08:52.663Z,75.28
2018-05-02T00:09:52.677Z,75.57
2018-05-02T00:10:52.719Z,75.48
2018-05-02T00:11:52.838Z,75.09
2018-05-02T00:12:52.752Z,75.28
2018-05-02T00:13:52.775Z,75.48
2018-05-02T00:14:52.759Z,75.28
2018-05-02T00:15:52.799Z,75.09
2018-05-02T00:16:52.914Z,76.15
2018-05-02T00:17:52.802Z,75.48
2018-05-02T00:18:52.823Z,75.96
2018-05-02T00:19:52.832Z,75.44
2018-05-02T00:20:52.849Z,75.38
2018-05-02T00:21:52.997Z,75.67
2018-05-02T00:22:52.885Z,75.57
2018-05-02T00:23:52.902Z,75.57
2018-05-02T00:24:52.913Z,75.67
2018-05-02T00:25:52.939Z,75.57
2018-05-02T00:26:53.054Z,75.38
2018-05-02T00:27:52.969Z,75.67
2018-05-02T00:28:52.977Z,75.67
2018-05-02T00:29:53.040Z,75.38
2018-05-02T00:30:53.039Z,75.96
2018-05-02T00:31:53.150Z,76.44
2018-05-02T00:32:53.065Z,76.82
2018-05-02T00:33:53.059Z,76.25
2018-05-02T00:34:53.100Z,75.48
2018-05-02T00:35:53.088Z,74.51
2018-05-02T00:36:53.207Z,73.65
2018-05-02T00:37:53.119Z,74.07
2018-05-02T00:38:53.138Z,73.78
2018-05-02T00:39:53.163Z,72.97
2018-05-02T00:40:53.168Z,73.07
2018-05-02T00:41:53.313Z,72.63
2018-05-02T00:42:53.229Z,72.33
2018-05-02T00:43:53.228Z,72.43
2018-05-02T00:44:53.230Z,72.72
2018-05-02T00:45:53.255Z,72.53
2018-05-02T00:46:53.279Z,71.76
2018-05-02T00:47:53.413Z,71.76
2018-05-02T00:48:53.303Z,72.05
2018-05-02T00:49:53.309Z,71.56
2018-05-02T00:50:53.334Z,71.56
2018-05-02T00:51:53.378Z,71.76
2018-05-02T00:52:53.465Z,71.95
2018-05-02T00:53:53.381Z,71.85
2018-05-02T00:54:53.416Z,72.33
2018-05-02T00:55:53.406Z,72.43
2018-05-02T00:56:53.422Z,71.66
2018-05-02T00:57:53.552Z,72.05
2018-05-02T00:58:53.457Z,71.37
2018-05-02T00:59:53.481Z,71.56
2018-05-02T01:00:53.506Z,71.85
2018-05-02T01:01:53.507Z,72.24
2018-05-02T01:02:53.647Z,72.14
2018-05-02T01:03:53.535Z,72.63
2018-05-02T01:04:53.547Z,72.33
2018-05-02T01:05:53.593Z,72.33
2018-05-02T01:06:53.589Z,73.10
2018-05-02T01:07:53.709Z,72.91
2018-05-02T01:08:53.613Z,72.63
2018-05-02T01:09:53.630Z,72.72
2018-05-02T01:10:53.674Z,73.20
2018-05-02T01:11:53.689Z,73.58
2018-05-02T01:12:53.852Z,73.55
2018-05-02T01:13:53.699Z,73.88
2018-05-02T01:14:53.734Z,73.78
2018-05-02T01:15:53.755Z,73.78
2018-05-02T01:16:53.768Z,73.78
2018-05-02T01:17:53.934Z,74.03
2018-05-02T01:18:53.774Z,74.26
2018-05-02T01:19:53.785Z,74.26
2018-05-02T01:20:53.820Z,74.16
2018-05-02T01:21:53.838Z,74.51
2018-05-02T01:22:53.944Z,74.71
2018-05-02T01:23:53.847Z,75.09
2018-05-02T01:24:53.883Z,75.09
2018-05-02T01:25:53.911Z,75.19
2018-05-02T01:26:53.926Z,74.80
2018-05-02T01:27:54.060Z,74.99
2018-05-02T01:28:53.931Z,75.48
2018-05-02T01:29:53.977Z,75.57
2018-05-02T01:30:53.978Z,76.34
2018-05-02T01:31:53.977Z,76.34
2018-05-02T01:32:54.125Z,76.34
2018-05-02T01:33:54.034Z,76.63
2018-05-02T01:34:54.048Z,77.01
2018-05-02T01:35:54.043Z,77.40
2018-05-02T01:36:54.082Z,77.65
2018-05-02T01:37:54.176Z,78.52
2018-05-02T01:38:54.090Z,79.10
2018-05-02T01:39:54.110Z,79.23
2018-05-02T01:40:54.121Z,79.03
2018-05-02T01:41:54.135Z,79.77
2018-05-02T01:42:54.248Z,80.06
2018-05-02T01:43:54.191Z,80.25
2018-05-02T01:44:54.206Z,80.73
2018-05-02T01:45:54.198Z,81.98
2018-05-02T01:46:54.211Z,81.60
2018-05-02T01:47:54.230Z,81.88
2018-05-02T01:48:54.371Z,81.50
2018-05-02T01:49:54.288Z,81.79
2018-05-02T01:50:54.271Z,81.98
2018-05-02T01:51:54.314Z,82.75
2018-05-02T01:52:54.308Z,82.85
2018-05-02T01:53:54.445Z,82.56
2018-05-02T01:54:54.348Z,82.75
2018-05-02T01:55:54.380Z,82.46
2018-05-02T01:56:54.398Z,82.46
2018-05-02T01:57:54.384Z,82.46
2018-05-02T01:58:54.546Z,82.65
2018-05-02T01:59:54.420Z,82.46
2018-05-02T02:00:54.427Z,83.14
2018-05-02T02:01:54.446Z,83.23
2018-05-02T02:02:54.458Z,83.33
2018-05-02T02:03:54.600Z,83.62
2018-05-02T02:04:54.489Z,83.81
2018-05-02T02:05:54.532Z,84.77
2018-05-02T02:06:54.521Z,84.77
2018-05-02T02:07:54.539Z,84.58
2018-05-02T02:08:54.702Z,84.67
2018-05-02T02:09:54.569Z,85.25
2018-05-02T02:10:54.580Z,85.06
2018-05-02T02:11:54.607Z,85.35
2018-05-02T02:12:54.615Z,85.44
2018-05-02T02:13:54.730Z,85.35
2018-05-02T02:14:54.650Z,85.74
2018-05-02T02:15:54.663Z,85.83
2018-05-02T02:16:54.674Z,86.02
2018-05-02T02:17:54.698Z,86.22
2018-05-02T02:18:54.816Z,86.31
2018-05-02T02:19:54.724Z,86.31
2018-05-02T02:20:54.741Z,86.12
2018-05-02T02:21:54.780Z,86.51
2018-05-02T02:22:54.797Z,86.60
2018-05-02T02:23:54.912Z,86.41
2018-05-02T02:24:54.823Z,86.41
2018-05-02T02:25:54.841Z,86.41
2018-05-02T02:26:54.864Z,86.79
2018-05-02T02:27:54.847Z,87.18
2018-05-02T02:28:54.961Z,86.75
2018-05-02T02:29:54.878Z,86.85
2018-05-02T02:30:54.919Z,87.04
2018-05-02T02:31:54.925Z,87.23
2018-05-02T02:32:54.924Z,87.33
2018-05-02T02:33:55.062Z,87.52
2018-05-02T02:34:54.979Z,87.56
2018-05-02T02:35:54.992Z,87.71
2018-05-02T02:36:54.988Z,87.33
2018-05-02T02:37:55.023Z,87.71
2018-05-02T02:38:55.111Z,87.62
2018-05-02T02:39:55.031Z,87.71
2018-05-02T02:40:55.046Z,87.81
2018-05-02T02:41:55.083Z,88.19
2018-05-02T02:42:55.077Z,88.00
2018-05-02T02:43:55.218Z,88.10
2018-05-02T02:44:55.104Z,88.19
2018-05-02T02:45:55.149Z,87.81
2018-05-02T02:46:55.137Z,88.00
2018-05-02T02:47:55.175Z,88.19
2018-05-02T02:48:55.339Z,89.15
2018-05-02T02:49:55.179Z,88.77
2018-05-02T02:50:55.205Z,89.06
2018-05-02T02:51:55.244Z,88.77
2018-05-02T02:52:55.258Z,89.35
2018-05-02T02:53:55.272Z,89.73
2018-05-02T02:54:55.356Z,89.83
2018-05-02T02:55:55.296Z,90.21
2018-05-02T02:56:55.294Z,90.69
2018-05-02T02:57:55.300Z,90.21
2018-05-02T02:58:55.319Z,89.92
2018-05-02T02:59:55.448Z,90.21
2018-05-02T03:00:55.371Z,90.12
2018-05-02T03:01:55.365Z,90.12
2018-05-02T03:02:55.377Z,89.64
2018-05-02T03:03:55.398Z,89.54
2018-05-02T03:04:55.515Z,89.64
2018-05-02T03:05:55.439Z,89.83
2018-05-02T03:06:55.450Z,89.35
2018-05-02T03:07:55.481Z,89.83
2018-05-02T03:08:55.489Z,89.83
2018-05-02T03:09:55.614Z,89.64
2018-05-02T03:10:55.503Z,89.54
2018-05-02T03:11:55.516Z,89.25
2018-05-02T03:12:55.557Z,89.64
2018-05-02T03:13:55.558Z,89.54
2018-05-02T03:14:55.694Z,89.83
2018-05-02T03:15:55.606Z,89.64
2018-05-02T03:16:55.588Z,90.02
2018-05-02T03:17:55.608Z,90.12
2018-05-02T03:18:55.635Z,90.79
2018-05-02T03:19:55.749Z,90.98
2018-05-02T03:20:55.676Z,90.21
2018-05-02T03:21:55.690Z,90.12
2018-05-02T03:22:55.711Z,90.21
2018-05-02T03:23:55.724Z,90.12
2018-05-02T03:24:55.824Z,89.44
2018-05-02T03:25:55.723Z,89.64
2018-05-02T03:26:55.771Z,89.64
2018-05-02T03:27:55.759Z,89.83
2018-05-02T03:28:55.797Z,89.35
2018-05-02T03:29:55.898Z,89.25
2018-05-02T03:30:55.816Z,89.35
2018-05-02T03:31:55.843Z,89.44
2018-05-02T03:32:55.836Z,88.96
2018-05-02T03:33:55.872Z,88.67
2018-05-02T03:34:55.987Z,89.06
2018-05-02T03:35:55.878Z,89.25
2018-05-02T03:36:55.896Z,88.96
2018-05-02T03:37:55.907Z,88.77
2018-05-02T03:38:55.941Z,88.87
2018-05-02T03:39:56.050Z,88.92
2018-05-02T03:40:55.951Z,89.06
2018-05-02T03:41:55.963Z,88.77
2018-05-02T03:42:55.994Z,88.96
2018-05-02T03:43:56.036Z,89.06
2018-05-02T03:44:56.114Z,89.15
2018-05-02T03:45:56.027Z,88.87
2018-05-02T03:46:56.046Z,89.15
2018-05-02T03:47:56.071Z,89.15
2018-05-02T03:48:56.079Z,89.25
2018-05-02T03:49:56.192Z,88.39
2018-05-02T03:50:56.106Z,88.57
2018-05-02T03:51:56.116Z,88.67
2018-05-02T03:52:56.214Z,88.87
2018-05-02T03:53:56.179Z,88.57
2018-05-02T03:54:56.294Z,88.39
2018-05-02T03:55:56.208Z,87.90
2018-05-02T03:56:56.209Z,89.15
2018-05-02T03:57:56.212Z,88.87
2018-05-02T03:58:56.227Z,88.96
2018-05-02T03:59:56.373Z,88.77
2018-05-02T04:00:56.284Z,88.96
2018-05-02T04:01:56.273Z,88.77
2018-05-02T04:02:56.292Z,88.77
2018-05-02T04:03:56.303Z,88.57
2018-05-02T04:04:56.423Z,88.67
2018-05-02T04:05:56.332Z,88.10
2018-05-02T04:06:56.374Z,87.90
2018-05-02T04:07:56.370Z,88.77
2018-05-02T04:08:56.411Z,88.57
2018-05-02T04:09:56.525Z,88.19
2018-05-02T04:10:56.434Z,88.10
2018-05-02T04:11:56.459Z,88.19
2018-05-02T04:12:56.465Z,87.71
2018-05-02T04:13:56.480Z,87.81
2018-05-02T04:14:56.597Z,87.71
2018-05-02T04:15:56.502Z,87.62
2018-05-02T04:16:56.530Z,87.71
2018-05-02T04:17:56.528Z,87.52
2018-05-02T04:18:56.558Z,87.71
2018-05-02T04:19:56.679Z,88.19
2018-05-02T04:20:56.599Z,87.90
2018-05-02T04:21:56.599Z,88.19
2018-05-02T04:22:56.616Z,87.62
2018-05-02T04:23:56.613Z,88.00
2018-05-02T04:24:56.822Z,88.19
2018-05-02T04:25:56.638Z,88.19
2018-05-02T04:26:56.663Z,88.10
2018-05-02T04:27:56.690Z,88.39
2018-05-02T04:28:56.679Z,88.39
2018-05-02T04:29:56.809Z,89.15
2018-05-02T04:30:56.724Z,88.87
2018-05-02T04:31:56.737Z,88.87
2018-05-02T04:32:56.773Z,89.06
2018-05-02T04:33:56.757Z,89.15
2018-05-02T04:34:56.905Z,89.40
2018-05-02T04:35:56.786Z,89.59
2018-05-02T04:36:56.812Z,90.17
2018-05-02T04:37:56.827Z,90.07
2018-05-02T04:38:56.830Z,90.65
2018-05-02T04:39:56.946Z,90.55
2018-05-02T04:40:56.917Z,90.94
2018-05-02T04:41:56.894Z,90.94
2018-05-02T04:42:56.931Z,90.75
2018-05-02T04:43:56.971Z,90.65
2018-05-02T04:44:57.077Z,90.17
2018-05-02T04:45:56.964Z,90.75
2018-05-02T04:46:56.952Z,90.65
2018-05-02T04:47:57.006Z,90.84
2018-05-02T04:48:57.009Z,90.75
2018-05-02T04:49:57.120Z,91.03
2018-05-02T04:50:57.014Z,91.32
2018-05-02T04:51:57.042Z,90.75
2018-05-02T04:52:57.054Z,90.75
2018-05-02T04:53:57.061Z,91.03
2018-05-02T04:54:57.230Z,91.32
2018-05-02T04:55:57.096Z,91.90
2018-05-02T04:56:57.103Z,91.42
2018-05-02T04:57:57.132Z,91.61
2018-05-02T04:58:57.154Z,91.22
2018-05-02T04:59:57.160Z,91.42
2018-05-02T05:00:57.290Z,91.61
2018-05-02T05:01:57.177Z,91.99
2018-05-02T05:02:57.195Z,91.80
2018-05-02T05:03:57.224Z,91.61
2018-05-02T05:04:57.276Z,91.22
2018-05-02T05:05:57.341Z,91.52
2018-05-02T05:06:57.254Z,91.22
2018-05-02T05:07:57.354Z,91.32
2018-05-02T05:08:57.281Z,91.03
2018-05-02T05:09:57.319Z,91.22
2018-05-02T05:10:57.458Z,91.52
2018-05-02T05:11:57.359Z,90.84
2018-05-02T05:12:57.408Z,90.94
2018-05-02T05:13:57.359Z,90.26
2018-05-02T05:14:57.370Z,90.07
2018-05-02T05:15:57.512Z,90.07
2018-05-02T05:16:57.450Z,90.17
2018-05-02T05:17:57.421Z,90.17
2018-05-02T05:18:57.437Z,89.59
2018-05-02T05:19:57.473Z,90.07
2018-05-02T05:20:57.567Z,89.40
2018-05-02T05:21:57.545Z,89.69
2018-05-02T05:22:57.519Z,89.40
2018-05-02T05:23:57.512Z,89.50
2018-05-02T05:24:57.542Z,89.40
2018-05-02T05:25:57.711Z,89.40
2018-05-02T05:26:57.565Z,89.50
2018-05-02T05:27:57.589Z,89.40
2018-05-02T05:28:57.602Z,89.59
2018-05-02T05:29:57.657Z,89.40
2018-05-02T05:30:57.749Z,89.50
2018-05-02T05:31:57.682Z,89.21
2018-05-02T05:32:57.663Z,88.82
2018-05-02T05:33:57.703Z,89.01
2018-05-02T05:34:57.718Z,89.01
2018-05-02T05:35:57.796Z,88.82
2018-05-02T05:36:57.691Z,89.01
2018-05-02T05:37:57.744Z,88.82
2018-05-02T05:38:57.737Z,88.82
2018-05-02T05:39:57.830Z,88.82
2018-05-02T05:40:57.884Z,89.21
2018-05-02T05:41:57.838Z,89.59
2018-05-02T05:42:57.794Z,89.40
2018-05-02T05:43:57.884Z,89.59
2018-05-02T05:44:57.873Z,89.98
2018-05-02T05:45:58.035Z,89.40
2018-05-02T05:46:57.848Z,89.30
2018-05-02T05:47:57.892Z,89.59
2018-05-02T05:48:57.882Z,88.44
2018-05-02T05:49:57.905Z,88.73
2018-05-02T05:50:58.072Z,88.73
2018-05-02T05:51:57.935Z,89.30
2018-05-02T05:52:57.936Z,88.97
2018-05-02T05:53:58.015Z,88.82
2018-05-02T05:54:58.020Z,89.30
2018-05-02T05:55:58.140Z,89.88
2018-05-02T05:56:58.027Z,89.69
2018-05-02T05:57:58.009Z,90.17
2018-05-02T05:58:58.019Z,90.80
2018-05-02T05:59:58.058Z,90.84
2018-05-02T06:00:58.161Z,90.75
2018-05-02T06:01:58.091Z,91.13
2018-05-02T06:02:58.085Z,90.84
2018-05-02T06:03:58.118Z,91.99
2018-05-02T06:04:58.162Z,91.71
2018-05-02T06:05:58.136Z,91.90
2018-05-02T06:06:58.242Z,91.99
2018-05-02T06:07:58.238Z,91.61
2018-05-02T06:08:58.197Z,91.52
2018-05-02T06:09:58.210Z,91.99
2018-05-02T06:10:58.226Z,91.13
2018-05-02T06:11:58.359Z,90.94
2018-05-02T06:12:58.290Z,90.75
2018-05-02T06:13:58.261Z,89.88
2018-05-02T06:14:58.301Z,90.31
2018-05-02T06:15:58.307Z,89.78
2018-05-02T06:16:58.418Z,90.17
2018-05-02T06:17:58.371Z,90.07
2018-05-02T06:18:58.322Z,90.07
2018-05-02T06:19:58.404Z,89.88
2018-05-02T06:20:58.367Z,90.07
2018-05-02T06:21:58.496Z,90.17
2018-05-02T06:22:58.408Z,90.26
2018-05-02T06:23:58.401Z,90.17
2018-05-02T06:24:58.476Z,89.93
2018-05-02T06:25:58.452Z,89.93
2018-05-02T06:26:58.543Z,90.41
2018-05-02T06:27:58.554Z,90.89
2018-05-02T06:28:58.486Z,90.89
2018-05-02T06:29:58.551Z,90.99
2018-05-02T06:30:58.508Z,90.80
2018-05-02T06:31:58.743Z,91.28
2018-05-02T06:32:58.566Z,91.85
2018-05-02T06:33:58.548Z,91.85
2018-05-02T06:34:58.576Z,92.43
2018-05-02T06:35:58.599Z,91.37
2018-05-02T06:36:58.693Z,89.83
2018-05-02T06:37:58.801Z,88.68
2018-05-02T06:38:58.656Z,89.22
2018-05-02T06:39:58.698Z,89.69
2018-05-02T06:40:58.706Z,89.79
2018-05-02T06:41:58.775Z,90.17
2018-05-02T06:42:58.730Z,90.08
2018-05-02T06:43:58.722Z,89.98
2018-05-02T06:44:58.781Z,89.89
2018-05-02T06:45:58.767Z,89.89
2018-05-02T06:46:58.876Z,89.79
2018-05-02T06:47:58.893Z,90.17
2018-05-02T06:48:58.767Z,90.56
2018-05-02T06:49:58.812Z,90.84
2018-05-02T06:50:58.798Z,90.56
2018-05-02T06:51:58.939Z,89.98
2018-05-02T06:52:58.838Z,89.79
2018-05-02T06:53:58.868Z,89.84
2018-05-02T06:54:58.911Z,90.03
2018-05-02T06:55:58.952Z,91.09
2018-05-02T06:56:58.983Z,91.47
2018-05-02T06:57:58.943Z,92.43
2018-05-02T06:58:58.923Z,92.33
2018-05-02T06:59:59.147Z,93.39
2018-05-02T07:00:58.967Z,93.77
2018-05-02T07:01:59.054Z,94.83
2018-05-02T07:02:58.972Z,94.83
2018-05-02T07:03:58.987Z,95.31
2018-05-02T07:04:59.072Z,94.83
2018-05-02T07:05:59.042Z,94.83
2018-05-02T07:06:59.145Z,94.45
2018-05-02T07:07:59.047Z,95.70
2018-05-02T07:08:59.085Z,96.37
2018-05-02T07:09:59.069Z,96.27
2018-05-02T07:10:59.084Z,95.98
2018-05-02T07:11:59.219Z,96.18
2018-05-02T07:12:59.128Z,96.75
2018-05-02T07:13:59.156Z,96.08
2018-05-02T07:14:59.172Z,96.08
2018-05-02T07:15:59.159Z,95.31
2018-05-02T07:16:59.327Z,94.83
2018-05-02T07:17:59.224Z,95.98
2018-05-02T07:18:59.304Z,95.98
2018-05-02T07:19:59.243Z,96.56
2018-05-02T07:20:59.230Z,96.08
2018-05-02T07:21:59.366Z,96.08
2018-05-02T07:22:59.259Z,96.18
2018-05-02T07:23:59.349Z,96.37
2018-05-02T07:24:59.366Z,96.27
2018-05-02T07:25:59.305Z,96.08
2018-05-02T07:26:59.417Z,95.89
2018-05-02T07:27:59.327Z,96.18
2018-05-02T07:28:59.395Z,96.94
2018-05-02T07:29:59.390Z,97.52
2018-05-02T07:30:59.396Z,97.61
2018-05-02T07:31:59.514Z,97.71
2018-05-02T07:32:59.466Z,98.38
2018-05-02T07:33:59.497Z,98.38
2018-05-02T07:34:59.495Z,98.38
2018-05-02T07:35:59.442Z,98.10
2018-05-02T07:36:59.560Z,98.00
2018-05-02T07:37:59.484Z,97.81
2018-05-02T07:38:59.517Z,97.81
2018-05-02T07:39:59.522Z,97.33
2018-05-02T07:40:59.553Z,97.04
2018-05-02T07:41:59.660Z,96.85
2018-05-02T07:42:59.546Z,96.47
2018-05-02T07:43:59.554Z,96.80
2018-05-02T07:44:59.687Z,96.22
2018-05-02T07:45:59.614Z,95.94
2018-05-02T07:46:59.734Z,96.42
2018-05-02T07:47:59.631Z,95.94
2018-05-02T07:48:59.687Z,95.94
2018-05-02T07:49:59.722Z,94.88
2018-05-02T07:50:59.658Z,94.83
2018-05-02T07:51:59.796Z,94.83
2018-05-02T07:52:59.716Z,94.35
2018-05-02T07:53:59.728Z,94.35
2018-05-02T07:54:59.751Z,94.64
2018-05-02T07:55:59.732Z,95.41
2018-05-02T07:56:59.853Z,95.12
2018-05-02T07:57:59.802Z,95.50
2018-05-02T07:58:59.766Z,95.31
2018-05-02T07:59:59.827Z,95.70
2018-05-02T08:00:59.798Z,95.50
2018-05-02T08:01:59.943Z,95.41
2018-05-02T08:02:59.835Z,95.31
2018-05-02T08:03:59.857Z,95.70
2018-05-02T08:04:59.893Z,95.89
2018-05-02T08:05:59.884Z,95.65
2018-05-02T08:07:00.041Z,95.31
2018-05-02T08:07:59.898Z,95.31
2018-05-02T08:08:59.949Z,95.12
2018-05-02T08:09:59.967Z,95.03
2018-05-02T08:11:00.020Z,95.12
2018-05-02T08:12:00.060Z,94.16
2018-05-02T08:12:59.997Z,94.16
2018-05-02T08:13:59.987Z,94.93
2018-05-02T08:15:00.036Z,95.79
2018-05-02T08:16:00.040Z,95.98
2018-05-02T08:17:00.144Z,96.08
2018-05-02T08:18:00.069Z,95.60
2018-05-02T08:19:00.062Z,95.70
2018-05-02T08:20:00.137Z,95.70
2018-05-02T08:21:00.079Z,95.70
2018-05-02T08:22:00.273Z,95.03
2018-05-02T08:23:00.121Z,95.26
2018-05-02T08:24:00.127Z,95.50
2018-05-02T08:25:00.172Z,94.83
2018-05-02T08:26:00.175Z,94.45
2018-05-02T08:27:00.271Z,94.16
2018-05-02T08:28:00.209Z,94.35
2018-05-02T08:29:00.231Z,94.26
2018-05-02T08:30:00.249Z,94.45
2018-05-02T08:31:00.257Z,94.45
2018-05-02T08:32:00.366Z,95.03
2018-05-02T08:33:00.317Z,94.83
2018-05-02T08:34:00.272Z,94.93
2018-05-02T08:35:00.495Z,95.12
2018-05-02T08:36:00.299Z,94.83
2018-05-02T08:37:00.427Z,94.45
2018-05-02T08:38:00.339Z,94.35
2018-05-02T08:39:00.356Z,94.16
2018-05-02T08:40:00.440Z,94.45
2018-05-02T08:41:00.372Z,94.45
2018-05-02T08:42:00.496Z,95.60
2018-05-02T08:43:00.398Z,96.37
2018-05-02T08:44:00.412Z,96.08
2018-05-02T08:45:00.486Z,96.27
2018-05-02T08:46:00.473Z,95.79
2018-05-02T08:47:00.557Z,95.60
2018-05-02T08:48:00.468Z,95.21
2018-05-02T08:49:00.488Z,95.31
2018-05-02T08:50:00.575Z,95.70
2018-05-02T08:51:00.515Z,95.31
2018-05-02T08:52:00.689Z,95.21
2018-05-02T08:53:00.596Z,95.31
2018-05-02T08:54:00.639Z,95.31
2018-05-02T08:55:00.625Z,95.21
2018-05-02T08:56:00.677Z,95.12
2018-05-02T08:57:00.783Z,95.31
2018-05-02T08:58:00.666Z,95.70
2018-05-02T08:59:00.680Z,95.89
2018-05-02T09:00:00.749Z,95.79
2018-05-02T09:01:00.758Z,95.60
2018-05-02T09:02:00.764Z,95.98
2018-05-02T09:03:00.701Z,95.98
2018-05-02T09:04:00.721Z,95.98
2018-05-02T09:05:00.736Z,96.27
2018-05-02T09:06:00.727Z,95.79
2018-05-02T09:07:00.841Z,95.79
2018-05-02T09:08:00.755Z,95.98
2018-05-02T09:09:00.849Z,96.18
2018-05-02T09:10:00.780Z,95.89
2018-05-02T09:11:00.807Z,95.50
2018-05-02T09:12:00.937Z,95.70
2018-05-02T09:13:00.816Z,95.50
2018-05-02T09:14:00.869Z,95.31
2018-05-02T09:15:00.863Z,94.93
2018-05-02T09:16:00.868Z,94.74
2018-05-02T09:17:00.982Z,94.64
2018-05-02T09:18:00.895Z,94.74
2018-05-02T09:19:00.908Z,94.74
2018-05-02T09:20:01.006Z,94.64
2018-05-02T09:21:00.969Z,95.03
2018-05-02T09:22:01.050Z,94.45
2018-05-02T09:23:00.977Z,94.35
2018-05-02T09:24:01.009Z,94.35
2018-05-02T09:25:00.999Z,94.26
2018-05-02T09:26:01.019Z,94.45
2018-05-02T09:27:01.136Z,95.41
2018-05-02T09:28:01.043Z,95.21
2018-05-02T09:29:01.049Z,95.41
2018-05-02T09:30:01.095Z,95.21
2018-05-02T09:31:01.079Z,95.21
2018-05-02T09:32:01.094Z,95.31
2018-05-02T09:33:01.221Z,95.31
2018-05-02T09:34:01.116Z,95.41
2018-05-02T09:35:01.135Z,95.12
2018-05-02T09:36:01.149Z,94.64
2018-05-02T09:37:01.172Z,94.64
2018-05-02T09:38:01.273Z,94.54
2018-05-02T09:39:01.191Z,94.74
2018-05-02T09:40:01.236Z,94.93
2018-05-02T09:41:01.247Z,94.26
2018-05-02T09:42:01.267Z,94.35
2018-05-02T09:43:01.350Z,94.26
2018-05-02T09:44:01.265Z,93.97
2018-05-02T09:45:01.303Z,94.16
2018-05-02T09:46:01.305Z,94.07
2018-05-02T09:47:01.308Z,94.35
2018-05-02T09:48:01.472Z,94.26
2018-05-02T09:49:01.339Z,94.11
2018-05-02T09:50:01.375Z,94.26
2018-05-02T09:51:01.365Z,93.97
2018-05-02T09:52:01.507Z,94.35
2018-05-02T09:53:01.492Z,93.92
2018-05-02T09:54:01.432Z,93.44
2018-05-02T09:55:01.422Z,93.73
2018-05-02T09:56:01.436Z,93.63
2018-05-02T09:57:01.475Z,93.54
2018-05-02T09:58:01.591Z,93.82
2018-05-02T09:59:01.509Z,93.82
2018-05-02T10:00:01.539Z,93.34
2018-05-02T10:01:01.536Z,93.25
2018-05-02T10:02:01.548Z,93.34
2018-05-02T10:03:01.685Z,93.25
2018-05-02T10:04:01.567Z,93.25
2018-05-02T10:05:01.581Z,93.15
2018-05-02T10:06:01.588Z,93.34
2018-05-02T10:07:01.594Z,93.05
2018-05-02T10:08:01.732Z,93.25
2018-05-02T10:09:01.619Z,93.25
2018-05-02T10:10:01.671Z,93.15
2018-05-02T10:11:01.650Z,93.05
2018-05-02T10:12:01.667Z,92.86
2018-05-02T10:13:01.780Z,92.86
2018-05-02T10:14:01.699Z,92.38
2018-05-02T10:15:01.755Z,92.96
2018-05-02T10:16:01.747Z,92.86
2018-05-02T10:17:01.763Z,92.77
2018-05-02T10:18:01.904Z,92.67
2018-05-02T10:19:01.795Z,92.57
2018-05-02T10:20:01.780Z,92.19
2018-05-02T10:21:01.828Z,91.61
2018-05-02T10:22:01.809Z,91.66
2018-05-02T10:23:01.925Z,91.75
2018-05-02T10:24:01.869Z,91.71
2018-05-02T10:25:01.867Z,91.18
2018-05-02T10:26:01.870Z,90.84
2018-05-02T10:27:01.899Z,91.23
2018-05-02T10:28:02.025Z,91.52
2018-05-02T10:29:01.925Z,91.33
2018-05-02T10:30:01.929Z,91.85
2018-05-02T10:31:01.942Z,91.18
2018-05-02T10:32:01.967Z,90.70
2018-05-02T10:33:02.079Z,90.80
2018-05-02T10:34:02.005Z,89.93
2018-05-02T10:35:02.007Z,89.83
2018-05-02T10:36:02.047Z,89.07
2018-05-02T10:37:02.092Z,88.97
2018-05-02T10:38:02.080Z,88.78
2018-05-02T10:39:02.165Z,89.26
2018-05-02T10:40:02.099Z,89.07
2018-05-02T10:41:02.120Z,88.06
2018-05-02T10:42:02.122Z,87.48
2018-05-02T10:43:02.178Z,87.67
2018-05-02T10:44:02.242Z,87.09
2018-05-02T10:45:02.224Z,87.09
2018-05-02T10:46:02.181Z,85.46
2018-05-02T10:47:02.199Z,85.55
2018-05-02T10:48:02.214Z,84.16
2018-05-02T10:49:02.321Z,83.67
2018-05-02T10:50:02.245Z,83.39
2018-05-02T10:51:02.257Z,83.77
2018-05-02T10:52:02.270Z,83.39
2018-05-02T10:53:02.288Z,81.37
2018-05-02T10:54:02.428Z,80.88
2018-05-02T10:55:02.337Z,80.44
2018-05-02T10:56:02.448Z,80.83
2018-05-02T10:57:02.376Z,79.67
2018-05-02T10:58:02.395Z,78.81
2018-05-02T10:59:02.500Z,79.28
2018-05-02T11:00:02.398Z,79.19
2018-05-02T11:01:02.440Z,78.75
2018-05-02T11:02:02.429Z,77.98
2018-05-02T11:03:02.452Z,77.11
2018-05-02T11:04:02.565Z,77.50
2018-05-02T11:05:02.523Z,77.69
2018-05-02T11:06:02.507Z,77.21
2018-05-02T11:07:02.547Z,77.69
2018-05-02T11:08:02.558Z,76.44
2018-05-02T11:09:02.678Z,77.01
2018-05-02T11:10:02.635Z,76.53
2018-05-02T11:11:02.597Z,76.15
2018-05-02T11:12:02.600Z,75.76
2018-05-02T11:13:02.618Z,75.67
2018-05-02T11:14:02.787Z,75.23
2018-05-02T11:15:02.709Z,75.71
2018-05-02T11:16:02.701Z,75.13
2018-05-02T11:17:02.689Z,74.07
2018-05-02T11:18:02.715Z,73.20
2018-05-02T11:19:02.826Z,73.10
2018-05-02T11:20:02.744Z,73.68
2018-05-02T11:21:02.765Z,74.26
2018-05-02T11:22:02.835Z,74.65
2018-05-02T11:23:02.799Z,74.65
2018-05-02T11:24:02.939Z,74.65
2018-05-02T11:25:02.825Z,75.09
2018-05-02T11:26:02.839Z,75.23
2018-05-02T11:27:02.871Z,75.03
2018-05-02T11:28:02.874Z,74.45
2018-05-02T11:29:02.988Z,74.45
2018-05-02T11:30:02.980Z,74.36
2018-05-02T11:31:02.929Z,74.45
2018-05-02T11:32:02.942Z,74.20
2018-05-02T11:33:02.985Z,73.14
2018-05-02T11:34:03.155Z,72.66
2018-05-02T11:35:03.039Z,72.27
2018-05-02T11:36:03.010Z,71.79
2018-05-02T11:37:03.059Z,71.79
2018-05-02T11:38:03.072Z,71.60
2018-05-02T11:39:03.065Z,71.64
2018-05-02T11:40:03.225Z,71.44
2018-05-02T11:41:03.128Z,72.08
2018-05-02T11:42:03.119Z,72.89
2018-05-02T11:43:03.161Z,71.25
2018-05-02T11:44:03.160Z,69.84
2018-05-02T11:45:03.284Z,68.87
2018-05-02T11:46:03.218Z,67.43
2018-05-02T11:47:03.212Z,67.43
2018-05-02T11:48:03.229Z,67.33
2018-05-02T11:49:03.243Z,67.43
2018-05-02T11:50:03.429Z,66.94
2018-05-02T11:51:03.288Z,67.71
2018-05-02T11:52:03.331Z,66.94
2018-05-02T11:53:03.325Z,65.40
2018-05-02T11:54:03.399Z,66.36
2018-05-02T11:55:03.464Z,66.36
2018-05-02T11:56:03.400Z,67.23
2018-05-02T11:57:03.394Z,66.94
2018-05-02T11:58:03.407Z,66.46
2018-05-02T11:59:03.438Z,67.23
2018-05-02T12:00:03.551Z,66.46
2018-05-02T12:01:03.473Z,66.40
2018-05-02T12:02:03.485Z,65.43
2018-05-02T12:03:03.502Z,64.76
2018-05-02T12:04:03.525Z,65.24
2018-05-02T12:05:03.682Z,65.24
2018-05-02T12:06:03.559Z,64.56
2018-05-02T12:07:03.577Z,64.56
2018-05-02T12:08:03.601Z,64.56
2018-05-02T12:09:03.632Z,64.47
2018-05-02T12:10:03.755Z,64.01
2018-05-02T12:11:03.680Z,62.76
2018-05-02T12:12:03.690Z,62.66
2018-05-02T12:13:03.693Z,61.60
2018-05-02T12:14:03.729Z,62.47
2018-05-02T12:15:03.891Z,62.66
2018-05-02T12:16:03.790Z,63.82
2018-05-02T12:17:03.790Z,62.66
2018-05-02T12:18:03.790Z,62.02
2018-05-02T12:19:03.824Z,61.25
2018-05-02T12:20:03.979Z,59.60
2018-05-02T12:21:03.851Z,59.51
2018-05-02T12:22:03.899Z,59.41
2018-05-02T12:23:03.894Z,58.47
2018-05-02T12:24:03.914Z,57.79
2018-05-02T12:25:04.040Z,58.09
2018-05-02T12:26:03.979Z,57.89
2018-05-02T12:27:03.971Z,57.79
2018-05-02T12:28:03.991Z,57.99
2018-05-02T12:29:04.012Z,57.70
2018-05-02T12:30:04.183Z,57.44
2018-05-02T12:31:04.067Z,56.18
2018-05-02T12:32:04.102Z,55.51
2018-05-02T12:33:04.097Z,54.93
2018-05-02T12:34:04.138Z,57.03
2018-05-02T12:35:04.231Z,57.44
2018-05-02T12:36:04.170Z,58.31
2018-05-02T12:37:04.173Z,56.86
2018-05-02T12:38:04.219Z,55.79
2018-05-02T12:39:04.230Z,55.89
2018-05-02T12:40:04.395Z,54.83
2018-05-02T12:41:04.259Z,54.57
2018-05-02T12:42:04.279Z,53.50
2018-05-02T12:43:04.301Z,53.11
2018-05-02T12:44:04.353Z,53.50
2018-05-02T12:45:04.527Z,54.75
2018-05-02T12:46:04.364Z,53.79
2018-05-02T12:47:04.388Z,52.56
2018-05-02T12:48:04.404Z,53.14
2018-05-02T12:49:04.448Z,52.46
2018-05-02T12:50:04.576Z,51.78
2018-05-02T12:51:04.468Z,51.40
2018-05-02T12:52:04.500Z,51.10
2018-05-02T12:53:04.537Z,51.90